Latest Coastal Weather Observations for Gove Airport

IDD60701

Issued at 6:21 am CST Saturday 5 September 2015 (issued every 10 minutes, with the page automatically refreshed every 10 minutes)

About coastal observations | Map of coastal stations | Coastal observations for NT | Marine services | Other Formats
Station Details ID: 014508 Name: GOVE AIRPORT Lat: -12.27 Lon: 136.82 Height: 51.6 m
Data from the previous 72 hours. | See also: Recent months at Gove Airport
Date/Time
CST
Temp

°C
Wind Pressure Rain
since 9am
mm
Weather Cloud Vis
km
Sea
Height
m
Swell
Dir
 
Speed
knots
Gust
knots
hPa Trend Height
m
Period
s
Dir
05/06:00am 20.4 SSE 5 6 1015.7 F 0.0 Haze Clear 14 - - - -
05/05:30am 21.8 SE 5 7 1015.5 - 0.0 - - 10 - - - -
05/05:00am 19.6 SE 1 3 1014.9 - 0.0 - - 10 - - - -
05/04:30am 20.2 SE 4 5 1015.0 - 0.0 - - 10 - - - -
05/04:00am 20.4 ESE 4 5 1015.1 - 0.0 - - 10 - - - -
05/03:30am 20.5 SE 4 5 1015.2 - 0.0 - - 10 - - - -
05/03:00am 20.6 SE 4 5 1015.0 - 0.0 - - 10 - - - -
05/02:30am 20.8 SE 3 4 1015.2 - 0.0 - - 10 - - - -
05/02:00am 21.0 SE 4 5 1015.5 - 0.0 - - 10 - - - -
05/01:30am 20.8 SSE 5 5 1015.9 - 0.0 - - 10 - - - -
05/01:00am 21.1 SSE 5 6 1016.2 - 0.0 - - 10 - - - -
05/12:30am 21.2 SSE 5 6 1016.5 - 0.0 - - 10 - - - -
05/12:00am 21.5 S 5 6 1016.7 - 0.0 - - 10 - - - -
 
Date/Time
CST
Temp

°C
Wind Pressure Rain
since 9am
mm
Weather Cloud Vis
km
Sea
Height
m
Swell
Dir
 
Speed
knots
Gust
knots
hPa Trend Height
m
Period
s
Dir
04/11:30pm 21.2 SSE 5 5 1017.1 - 0.0 - - 10 - - - -
04/11:00pm 21.8 SSE 5 6 1017.1 - 0.0 - - 10 - - - -
04/10:30pm 22.0 S 5 6 1017.1 - 0.0 - - 10 - - - -
04/10:00pm 22.3 SSE 5 6 1017.2 - 0.0 - - 10 - - - -
04/09:30pm 22.3 S 4 6 1017.0 - 0.0 - - 10 - - - -
04/09:00pm 22.7 S 5 6 1016.6 S 0.0 Smoke Clear 22 - - - -
04/08:30pm 23.2 S 4 5 1016.5 - 0.0 - - 10 - - - -
04/08:00pm 23.7 S 4 5 1016.2 - 0.0 - - 10 - - - -
04/07:30pm 24.1 S 4 5 1016.1 - 0.0 - - 10 - - - -
04/07:00pm 24.7 S 5 7 1015.8 - 0.0 - - 10 - - - -
04/06:30pm 25.4 S 7 11 1015.5 - 0.0 - - 10 - - - -
04/06:00pm 26.2 S 10 13 1015.0 S 0.0 Smoke Clear 23 - - - -
04/05:30pm 27.2 SSE 10 16 1015.1 - 0.0 - - 10 - - - -
04/05:00pm 27.9 S 11 16 1014.8 - 0.0 - - 10 - - - -
04/04:30pm 28.6 SSE 11 15 1014.6 - 0.0 - - 10 - - - -
04/04:00pm 29.6 SSE 11 16 1014.6 - 0.0 - - 10 - - - -
04/03:30pm 29.9 SSE 13 19 1014.7 - 0.0 - - 10 - - - -
04/03:00pm 30.1 SSE 15 21 1014.7 R 0.0 Smoke Clear 23 - - - -
04/02:30pm 30.2 SE 15 23 1015.2 - 0.0 - - 10 - - - -
04/02:00pm 30.6 SE 15 23 1015.4 - 0.0 - - 10 - - - -
04/01:30pm 30.2 SE 15 22 1015.6 - 0.0 - - 10 - - - -
04/01:00pm 31.4 SE 15 21 1016.0 - 0.0 - - 10 - - - -
04/12:30pm 30.9 SE 15 21 1016.3 - 0.0 - Mostly clear 10 - - - -
04/12:00pm 30.6 SE 14 21 1016.6 F 0.0 Smoke Mostly clear 22 - - - -
04/11:30am 30.7 SE 15 21 1017.3 - 0.0 - - 10 - - - -
04/11:00am 30.4 SE 14 21 1017.6 - 0.0 - Mostly clear 10 - - - -
04/10:30am 30.2 SE 12 15 1017.9 - 0.0 - Mostly clear 10 - - - -
04/10:00am 30.2 SE 12 17 1018.0 - 0.0 - Mostly clear 10 - - - -
04/09:30am 28.8 SE 9 12 1018.0 - 0.0 - Mostly clear 10 - - - -
04/09:00am 28.2 SE 9 12 1017.8 F 0.0 Smoke Mostly clear 27 - - - -
04/08:30am 27.4 SE 10 13 1017.9 - 0.0 - Mostly clear 10 - - - -
04/08:00am 26.2 SE 8 10 1017.8 - 0.0 - Mostly clear 10 - - - -
04/07:30am 24.8 ESE 5 7 1017.5 - 0.0 - - 10 - - - -
04/07:00am 22.7 SE 4 5 1016.9 - 0.0 - Mostly clear 9 - - - -
04/06:30am 21.8 ESE 5 6 1016.5 - 0.0 - Mostly clear 10 - - - -
04/06:00am 21.9 ESE 5 6 1016.2 R 0.0 Fine Mostly clear 12 - - - -
04/05:30am 21.7 SE 4 5 1016.1 - 0.0 - - 8 - - - -
04/05:27am 21.7 SE 4 5 1016.1 - 0.0 - - 8 - - - -
04/05:16am 21.4 SE 4 5 1016.1 - 0.0 - Partly cloudy 6 - - - -
04/05:00am 21.8 SE 4 5 1016.0 - 0.0 - - 8 - - - -
04/04:30am 22.1 SE 4 5 1015.7 - 0.0 - Partly cloudy 9 - - - -
04/04:00am 22.2 E 4 5 1015.6 - 0.0 - - 9 - - - -
04/03:30am 21.9 SSE 4 5 1015.3 - 0.0 - - 8 - - - -
04/03:00am 22.3 S 5 6 1015.1 - 0.0 - - 10 - - - -
04/02:30am 22.3 SSE 5 6 1015.5 - 0.0 - - 10 - - - -
04/02:00am 22.6 SSE 5 6 1015.5 - 0.0 - - 10 - - - -
04/01:30am 23.1 SSE 5 6 1015.8 - 0.0 - - 10 - - - -
04/01:00am 23.4 SSE 6 7 1016.2 - 0.0 - - 10 - - - -
04/12:30am 23.8 SSE 6 7 1016.6 - 0.0 - - 10 - - - -
04/12:00am 23.8 SE 6 8 1016.6 - 0.0 - - 10 - - - -
 
Date/Time
CST
Temp

°C
Wind Pressure Rain
since 9am
mm
Weather Cloud Vis
km
Sea
Height
m
Swell
Dir
 
Speed
knots
Gust
knots
hPa Trend Height
m
Period
s
Dir
03/11:30pm 23.8 SSE 6 7 1017.1 - 0.0 - - 10 - - - -
03/11:00pm 24.1 SSE 7 9 1017.2 - 0.0 - - 10 - - - -
03/10:30pm 24.1 SSE 6 8 1017.2 - 0.0 - - 10 - - - -
03/10:00pm 24.2 SSE 6 8 1017.3 - 0.0 - Mostly clear 10 - - - -
03/09:30pm 24.3 SSE 6 8 1017.4 - 0.0 - Mostly clear 10 - - - -
03/09:00pm 24.5 SSE 5 8 1017.1 R 0.0 Smoke Mostly clear 18 - - - -
03/08:30pm 24.4 SSE 5 6 1017.1 - 0.0 - Mostly clear 10 - - - -
03/08:00pm 24.9 SE 5 7 1016.7 - 0.0 - Mostly clear 10 - - - -
03/07:30pm 25.0 SSE 6 7 1016.4 - 0.0 - Mostly clear 10 - - - -
03/07:00pm 25.5 SE 8 10 1016.1 - 0.0 - Mostly clear 10 - - - -
03/06:30pm 25.9 SSE 9 12 1015.9 - 0.0 - Mostly clear 10 - - - -
03/06:00pm 26.7 ESE 11 14 1015.4 R 0.0 Smoke Mostly clear 18 - - - -
03/05:30pm 27.5 ESE 11 15 1015.1 - 0.0 - Mostly clear 10 - - - -
03/05:00pm 28.4 ESE 13 16 1015.0 - 0.0 - Mostly clear 10 - - - -
03/04:30pm 28.9 ESE 13 16 1014.9 - 0.0 - Mostly clear 10 - - - -
03/04:00pm 28.9 E 9 13 1014.3 - 0.0 - Mostly clear 10 - - - -
03/03:30pm 29.5 ENE 9 13 1014.2 - 0.0 - Mostly clear 10 - - - -
03/03:00pm 29.1 NE 12 16 1014.2 R 0.0 Smoke Mostly clear 18 - - - -
03/02:30pm 29.2 NE 10 13 1014.8 - 0.0 - Mostly clear 10 - - - -
03/02:00pm 29.3 NE 9 14 1015.2 - 0.0 - Mostly clear 10 - - - -
03/01:30pm 29.7 ENE 9 14 1015.4 - 0.0 - - 10 - - - -
03/01:00pm 29.5 ENE 9 13 1015.9 - 0.0 - - 10 - - - -
03/12:30pm 29.0 E 9 13 1016.1 - 0.0 - Mostly clear 10 - - - -
03/12:00pm 28.5 NNE 10 14 1016.2 R 0.0 Smoke Mostly clear 18 - - - -
03/11:30am 29.3 ENE 11 16 1016.6 - 0.0 - Mostly clear 10 - - - -
03/11:00am 29.1 E 10 15 1016.9 - 0.0 - Mostly clear 10 - - - -
03/10:30am 28.6 NE 10 15 1017.0 - 0.0 - Mostly clear 10 - - - -
03/10:00am 28.4 NE 11 15 1017.3 - 0.0 - Mostly clear 10 - - - -
03/09:30am 28.0 NE 11 17 1017.3 - 0.0 - Mostly clear 10 - - - -
03/09:00am 27.1 NE 11 16 1017.1 R 0.2 Smoke Mostly clear 18 - - - -
03/08:30am 26.5 NE 10 14 1017.1 - 0.2 - Mostly clear 10 - - - -
03/08:00am 25.9 NE 10 14 1016.7 - 0.2 - Mostly clear 10 - - - -
03/07:30am 24.8 NE 8 11 1016.4 - 0.2 - Mostly clear 10 - - - -
03/07:00am 23.2 ENE 5 7 1016.2 - 0.2 - Mostly clear 10 - - - -
03/06:30am 22.5 ENE 6 8 1015.9 - 0.2 - Mostly clear 10 - - - -
03/06:00am 20.3 ENE 4 5 1015.2 F 0.2 Smoke Mostly clear 14 - - - -
03/05:47am 19.9 ENE 4 4 1015.2 - 0.2 - - 10 - - - -
03/05:30am 20.3 CALM 0 0 1015.1 - 0.2 - - 7 - - - -
03/05:28am 20.0 CALM 0 0 1015.1 - 0.2 - - 6 - - - -
03/05:00am 20.6 CALM 0 0 1015.0 - 0.2 - - 8 - - - -
03/04:30am 20.7 NE 1 4 1014.8 - 0.2 - - 9 - - - -
03/04:00am 22.5 NE 4 5 1014.8 - 0.2 - - 10 - - - -
03/03:30am 21.0 NE 5 6 1014.9 - 0.2 - - 10 - - - -
03/03:03am 19.8 CALM 0 0 1015.0 - 0.2 - - 8 - - - -
03/03:00am 19.7 CALM 0 0 1014.8 - 0.2 - - 8 - - - -
03/02:30am 19.7 CALM 0 0 1015.1 - 0.2 - - 4 - - - -
03/02:00am 19.9 CALM 0 0 1015.1 - 0.2 - - 5 - - - -
03/01:40am 20.2 CALM 0 0 1015.2 - 0.2 - - 6 - - - -
03/01:30am 20.4 CALM 0 0 1015.3 - 0.2 - - 7 - - - -
03/01:00am 20.7 CALM 0 0 1015.5 - 0.2 - - 9 - - - -
03/12:30am 20.7 CALM 0 0 1015.8 - 0.2 - - 8 - - - -
03/12:00am 21.1 CALM 0 0 1015.8 - 0.2 - - 7 - - - -
 
Date/Time
CST
Temp

°C
Wind Pressure Rain
since 9am
mm
Weather Cloud Vis
km
Sea
Height
m
Swell
Dir
 
Speed
knots
Gust
knots
hPa Trend Height
m
Period
s
Dir
02/11:51pm 21.0 CALM 0 0 1016.1 - 0.2 - - 10 - - - -
02/11:38pm 21.1 CALM 0 0 1016.1 - 0.2 - - 6 - - - -
02/11:30pm 21.2 CALM 0 0 1016.2 - 0.2 - - 9 - - - -
02/11:00pm 21.6 CALM 0 0 1016.1 - 0.2 - - 10 - - - -
02/10:30pm 22.7 E 2 3 1016.1 - 0.2 - Partly cloudy 10 - - - -
02/10:00pm 23.9 ENE 4 4 1016.0 - 0.2 - Mostly clear 10 - - - -
02/09:30pm 24.2 ENE 4 5 1015.8 - 0.2 - Mostly clear 10 - - - -
02/09:00pm 24.4 ENE 4 5 1015.4 R 0.2 Fine Mostly clear 21 - - - -
02/08:30pm 24.8 E 4 5 1015.3 - 0.2 - Mostly clear 10 - - - -
02/08:00pm 25.0 ENE 4 6 1014.9 - 0.2 - Mostly clear 10 - - - -
02/07:30pm 25.1 NE 6 8 1014.5 - 0.2 - Mostly clear 10 - - - -
02/07:00pm 25.3 NE 6 7 1014.3 - 0.2 - Partly cloudy 10 - - - -
02/06:30pm 25.6 NE 8 12 1014.0 - 0.2 - Mostly clear 10 - - - -
02/06:00pm 26.0 ENE 9 13 1013.5 F 0.2 Fine Partly cloudy 23 - - - -
02/05:30pm 26.9 ENE 10 13 1013.8 - 0.2 - Partly cloudy 10 - - - -
02/05:00pm 27.0 ENE 11 15 1013.6 - 0.2 - Partly cloudy 10 - - - -
02/04:30pm 27.7 E 11 14 1013.4 - 0.2 - Mostly clear 10 - - - -
02/04:00pm 28.4 ENE 10 13 1013.5 - 0.2 - Mostly clear 10 - - - -
02/03:30pm 28.5 ENE 10 15 1013.5 - 0.2 - Mostly clear 10 - - - -
02/03:00pm 28.8 ENE 9 12 1013.3 F 0.2 Fine Mostly clear 24 - - - -
02/02:30pm 29.2 ENE 8 13 1013.8 - 0.2 - Mostly clear 10 - - - -
02/02:00pm 29.4 NE 9 14 1014.1 - 0.2 - Mostly clear 10 - - - -
02/01:30pm 29.3 NE 9 15 1014.5 - 0.2 - Mostly clear 10 - - - -
02/01:00pm 28.8 NE 10 13 1015.0 - 0.2 - Mostly clear 10 - - - -
02/12:30pm 29.1 E 9 12 1015.5 - 0.2 - Mostly clear 10 - - - -
02/12:00pm 28.9 E 9 11 1015.7 F 0.2 Fine Mostly clear 22 - - - -
02/11:30am 29.1 ENE 9 13 1016.4 - 0.2 - Mostly clear 10 - - - -
02/11:00am 28.2 ENE 9 13 1016.9 - 0.2 - Mostly clear 10 - - - -
02/10:30am 27.5 ENE 10 14 1017.2 - 0.2 - Mostly clear 10 - - - -
02/10:00am 27.4 ENE 10 15 1017.4 - 0.0 - Partly cloudy 10 - - - -
02/09:30am 27.3 ENE 8 11 1017.3 - 0.0 - Mostly clear 10 - - - -
02/09:00am 26.5 ENE 8 12 1016.9 R 0.0 Fine Mostly clear 26 - - - -
02/08:30am 25.5 ENE 6 9 1017.0 - 0.0 - Mostly clear 10 - - - -
02/08:00am 23.7 SE 2 5 1016.6 - 0.0 - Mostly clear 10 - - - -
02/07:40am 21.0 CALM 0 0 1016.4 - 0.0 Fog patches Mostly clear 9 - - - -
02/07:36am 20.7 CALM 0 0 1016.3 - 0.0 Fog patches Mostly clear 3 - - - -
02/07:30am 20.1 CALM 0 0 1016.3 - 0.0 Fog patches Partly cloudy 1 - - - -
02/07:00am 17.9 CALM 0 0 1015.9 - 0.0 Fog Cloudy 0.5 - - - -
02/06:30am 17.4 CALM 0 0 1015.4 - 0.0 Fog Partly cloudy 0.4 - - - -

Other Formats:

Comma delimited format used in spreadsheet applications
http://www.bom.gov.au/fwo/IDD60701/IDD60701.94150.axf

JavaScript Object Notation format (JSON) in row-major order
http://www.bom.gov.au/fwo/IDD60701/IDD60701.94150.json